Weather at Mitiaro Island Airport

Public forecast

Using degrees Celsius for public forecast. Weather courtesy of forecast.io.

Closest aviation weather report (METAR) to Mitiaro Island Airport

Closest report is Mauke Airport, 26.8 nm (49.7 km) SE. Retrieved 2022/01/26 04:00 UTC (58 minutes ago):

NCMK 260400Z AUTO 05003KT //// ////// ///// Q1011

Closest aviation forecast (TAF) to Mitiaro Island Airport

Forecast is more than 12 hours old.

Closest forecast is Aitutaki Airport, 131.6 nm (243.7 km) WNW. Retrieved 2018/02/21 16:17 UTC (4 years ago):

TAF NCAI 211519Z 2116/2205 03012KT 9999 -SHRA SCT018 BKN015 BKN100 TEMPO 2116/2205 3000 TSRA BKN015 FEW018CB